Main page
METAR-TAF:

METAR-TAF

Airports :

Romorantin, France

Pruniers

latitude: 47-19N, longitude: 001-41E, elevation: 85 m

Current weather observation

The report was made 13 minutes ago, at 11:00 UTC
Wind 12 kt from the Southwest, varying between South and West
Temperature 17°C
Humidity 59%
Pressure 1010 hPa
Visibility 10 km or more
Overcast at a height of 3100 ft

METAR: LFYR 231100Z AUTO 22012KT 190V260 9999 OVC031 17/09 Q1010 BECMG 20015G25KT

Time: 12:13 (11:13 UTC)


TAF: missing

Weather observations and forecasts of more than 4000 airports (METAR and TAF reports).

The available stations are represented by yellow and red dots on the map.

Hover mouse over dot to see the name of the station.

Then click to see weather observations and forecasts.

To change the map : click on the green buttons with a black cross to zoom in, on the green button with a dash to zoom out, or on the green arrows for adjacent maps.


METAR-TAF: